Latest Weather Observations for Scherger

IDQ60801

Issued at 7:32 pm EST Sunday 20 August 2017 (issued every 30 minutes, with the page automatically refreshed every 10 minutes)

About weather observations | Map of weather stations | Latest weather observations for QLD | Other Formats
Station Details ID: 027075 Name: SCHERGER RAAF Lat: -12.62 Lon: 142.09 Height: 39.34 m
Data from the previous 72 hours. | See also: Recent months at Scherger
Date/Time
EST
Temp
°C
App
Temp
°C
Dew
Point
°C
Rel
Hum
%
Delta-T
°C
Wind Press
QNH
hPa
Press
MSL
hPa
Rain since
9am
mm
Dir  Spd
km/h
Gust
km/h
Spd
kts
Gust
kts
20/07:30pm 25.9 25.5 15.3 52 6.4 E 11 24 6 13 1013.0 1012.8 0.0
20/07:00pm 26.4 25.7 15.4 50 6.7 E 13 22 7 12 1012.6 1012.4 0.0
20/06:30pm 27.2 26.3 15.9 50 6.9 E 15 28 8 15 1012.2 1012.0 0.0
20/06:00pm 27.9 27.8 15.9 48 7.4 E 11 26 6 14 1011.7 1011.5 0.0
20/05:30pm 29.2 28.0 15.0 42 8.7 E 15 28 8 15 1011.3 1011.1 0.0
20/05:00pm 29.6 28.9 14.2 39 9.3 ESE 11 20 6 11 1011.1 1010.9 0.0
20/04:30pm 30.5 28.6 14.2 37 9.9 E 17 33 9 18 1011.0 1010.8 0.0
20/04:00pm 30.5 28.8 14.6 38 9.7 ESE 17 26 9 14 1011.0 1010.8 0.0
20/03:30pm 31.1 29.4 14.7 37 10.0 E 17 28 9 15 1011.1 1010.9 0.0
20/03:00pm 30.8 29.3 15.2 38 9.6 E 17 28 9 15 1011.2 1011.0 0.0
20/02:30pm 30.2 28.5 14.7 39 9.5 ESE 17 33 9 18 1011.6 1011.4 0.0
20/02:00pm 30.8 29.4 14.4 36 10.0 ENE 15 26 8 14 1011.8 1011.6 0.0
20/01:30pm 31.9 30.5 14.5 34 10.6 E 15 26 8 14 1012.2 1012.0 0.0
20/01:00pm 31.0 29.9 15.4 38 9.6 ESE 15 24 8 13 1012.6 1012.4 0.0
20/12:30pm 31.8 31.4 16.1 38 9.8 E 13 30 7 16 1012.8 1012.6 0.0
20/12:00pm 30.7 29.6 16.3 42 9.0 E 17 32 9 17 1013.3 1013.1 0.0
20/11:30am 29.7 28.2 16.8 45 8.1 ESE 20 37 11 20 1013.8 1013.6 0.0
20/11:00am 29.0 28.4 17.5 49 7.3 E 17 28 9 15 1014.2 1014.0 0.0
20/10:30am 28.9 29.0 18.4 53 6.7 E 15 24 8 13 1014.7 1014.5 0.0
20/10:00am 27.1 26.7 18.1 58 5.7 E 17 28 9 15 1015.0 1014.8 0.0
20/09:30am 26.2 26.4 18.6 63 4.8 ESE 15 24 8 13 1015.1 1014.9 0.0
20/09:00am 24.5 25.9 18.7 70 3.7 SE 9 15 5 8 1015.2 1015.0 0.0
20/08:30am 22.9 23.8 18.4 76 2.8 SSE 11 15 6 8 1015.1 1014.9 0.0
20/08:00am 21.2 22.6 18.6 85 1.6 SSE 9 15 5 8 1014.9 1014.7 0.0
20/07:30am 19.5 21.2 18.0 91 0.9 S 6 9 3 5 1014.9 1014.7 0.0
20/07:00am 18.4 20.8 16.9 91 0.9 CALM 0 0 0 0 1014.4 1014.2 0.0
20/06:30am 18.6 19.9 17.1 91 0.9 S 6 11 3 6 1014.2 1014.0 0.0
20/06:00am 18.5 21.0 17.2 92 0.8 CALM 0 0 0 0 1013.8 1013.6 0.0
20/05:30am 18.1 20.1 16.1 88 1.2 CALM 0 0 0 0 1013.5 1013.3 0.0
20/05:00am 18.6 21.0 16.9 90 1.0 CALM 0 0 0 0 1013.3 1013.1 0.0
20/04:30am 18.9 20.3 17.4 91 0.9 S 6 11 3 6 1013.3 1013.1 0.0
20/04:00am 18.5 20.7 16.5 88 1.2 CALM 0 0 0 0 1013.3 1013.1 0.0
20/03:30am 18.9 21.3 17.0 89 1.2 CALM 0 0 0 0 1013.2 1013.0 0.0
20/03:00am 19.1 21.5 16.9 87 1.3 CALM 0 0 0 0 1013.4 1013.2 0.0
20/02:30am 19.4 21.8 17.0 86 1.5 CALM 0 0 0 0 1013.5 1013.3 0.0
20/02:00am 19.9 22.5 17.5 86 1.5 CALM 0 0 0 0 1013.5 1013.3 0.0
20/01:30am 20.4 23.1 17.8 85 1.6 CALM 0 0 0 0 1013.7 1013.5 0.0
20/01:00am 21.1 23.9 17.9 82 2.0 CALM 0 0 0 0 1014.0 1013.8 0.0
20/12:30am 21.7 24.2 18.1 80 2.2 E 2 6 1 3 1014.2 1014.0 0.0
20/12:00am 22.0 24.0 17.8 77 2.6 ENE 4 13 2 7 1014.1 1013.9 0.0
 
Date/Time
EST
Temp
°C
App
Temp
°C
Dew
Point
°C
Rel
Hum
%
Delta-T
°C
Wind Press
QNH
hPa
Press
MSL
hPa
Rain since
9am
mm
Dir  Spd
km/h
Gust
km/h
Spd
kts
Gust
kts
19/11:30pm 22.4 23.8 17.8 75 2.9 ENE 7 19 4 10 1014.2 1014.0 0.0
19/11:00pm 22.8 23.7 17.5 72 3.3 ENE 9 17 5 9 1014.4 1014.2 0.0
19/10:30pm 23.3 23.6 17.1 68 3.8 E 11 17 6 9 1014.6 1014.4 0.0
19/10:00pm 23.3 23.9 15.4 61 4.7 ENE 6 9 3 5 1014.7 1014.5 0.0
19/09:30pm 24.4 24.7 15.1 56 5.6 E 7 13 4 7 1014.4 1014.2 0.0
19/09:00pm 25.1 25.3 14.3 51 6.4 E 6 11 3 6 1014.1 1013.9 0.0
19/08:30pm 26.1 25.6 13.9 47 7.2 ESE 9 17 5 9 1013.7 1013.5 0.0
19/08:00pm 26.7 26.0 13.1 43 8.0 E 9 13 5 7 1013.2 1013.0 0.0
19/07:30pm 27.5 26.5 12.3 39 8.8 E 9 17 5 9 1012.9 1012.7 0.0
19/07:00pm 28.2 27.3 11.3 35 9.7 ESE 7 15 4 8 1012.4 1012.2 0.0
19/06:30pm 29.4 27.6 11.0 32 10.6 ESE 11 17 6 9 1011.9 1011.7 0.0
19/06:00pm 30.6 28.6 10.0 28 11.7 ESE 11 17 6 9 1011.5 1011.3 0.0
19/05:30pm 32.1 29.4 9.0 24 13.0 E 13 28 7 15 1011.0 1010.8 0.0
19/05:00pm 32.9 29.3 8.4 22 13.7 E 17 37 9 20 1010.9 1010.7 0.0
19/04:30pm 33.2 29.7 8.6 22 13.8 E 17 30 9 16 1010.8 1010.6 0.0
19/04:00pm 33.9 30.7 8.5 21 14.3 ESE 15 28 8 15 1010.7 1010.5 0.0
19/03:30pm 34.2 29.8 7.3 19 14.9 E 20 35 11 19 1010.7 1010.5 0.0
19/03:00pm 34.8 31.2 8.5 20 14.9 ESE 17 24 9 13 1010.8 1010.6 0.0
19/02:30pm 34.1 29.1 6.4 18 15.1 ESE 22 37 12 20 1011.2 1011.0 0.0
19/02:00pm 33.7 29.5 8.3 21 14.2 ESE 20 33 11 18 1011.7 1011.5 0.0
19/01:30pm 33.7 30.6 10.3 24 13.5 E 17 32 9 17 1012.3 1012.1 0.0
19/01:00pm 33.3 31.7 13.9 31 11.8 ESE 15 26 8 14 1012.9 1012.7 0.0
19/12:30pm 31.9 30.4 14.1 34 10.8 ENE 15 30 8 16 1013.4 1013.2 0.0
19/12:00pm 31.0 30.1 15.8 40 9.5 E 15 28 8 15 1014.0 1013.8 0.0
19/11:30am 29.5 28.3 16.0 44 8.4 ESE 17 30 9 16 1014.3 1014.1 0.0
19/11:00am 29.2 28.6 16.7 46 7.8 ESE 15 26 8 14 1014.7 1014.5 0.0
19/10:30am 27.8 27.7 17.0 51 6.8 E 13 30 7 16 1015.1 1014.9 0.0
19/10:00am 26.2 25.5 17.3 58 5.6 E 17 30 9 16 1015.2 1015.0 0.0
19/09:30am 25.7 25.3 18.1 63 4.8 E 17 28 9 15 1015.2 1015.0 0.0
19/09:00am 23.5 24.6 17.9 71 3.5 SSE 9 13 5 7 1015.2 1015.0 0.0
19/08:30am 21.8 23.3 18.0 79 2.4 SE 7 11 4 6 1015.0 1014.8 0.0
19/08:00am 20.2 21.6 17.8 86 1.5 S 7 11 4 6 1015.1 1014.9 0.0
19/07:30am 18.8 20.1 17.6 93 0.7 S 7 11 4 6 1014.8 1014.6 0.0
19/07:00am 17.6 18.5 16.5 93 0.7 S 7 9 4 5 1014.5 1014.3 0.0
19/06:30am 17.5 18.3 16.4 93 0.7 S 7 9 4 5 1014.1 1013.9 0.0
19/06:00am 17.1 18.9 15.4 90 1.0 CALM 0 0 0 0 1013.8 1013.6 0.0
19/05:30am 17.6 19.7 16.3 92 0.8 CALM 0 0 0 0 1013.5 1013.3 0.0
19/05:00am 17.3 19.1 15.5 89 1.1 CALM 0 0 0 0 1013.2 1013.0 0.0
19/04:30am 17.9 20.0 16.2 90 1.0 CALM 0 0 0 0 1013.2 1013.0 0.0
19/04:00am 17.8 19.8 16.0 89 1.1 CALM 0 0 0 0 1013.4 1013.2 0.0
19/03:30am 18.1 20.1 16.1 88 1.2 CALM 0 0 0 0 1013.4 1013.2 0.0
19/03:00am 18.1 19.9 15.5 85 1.5 CALM 0 0 0 0 1013.4 1013.2 0.0
19/02:30am 18.8 21.0 16.4 86 1.4 CALM 0 0 0 0 1013.5 1013.3 0.0
19/02:00am 18.9 20.3 16.3 85 1.6 SSE 4 7 2 4 1013.9 1013.7 0.0
19/01:30am 19.5 21.9 16.9 85 1.6 CALM 0 6 0 3 1014.1 1013.9 0.0
19/01:00am 19.3 21.3 16.0 81 2.0 CALM 0 0 0 0 1014.3 1014.1 0.0
19/12:30am 19.8 21.8 15.9 78 2.3 CALM 0 0 0 0 1014.6 1014.4 0.0
19/12:00am 20.7 22.9 16.5 77 2.5 CALM 0 0 0 0 1014.9 1014.7 0.0
 
Date/Time
EST
Temp
°C
App
Temp
°C
Dew
Point
°C
Rel
Hum
%
Delta-T
°C
Wind Press
QNH
hPa
Press
MSL
hPa
Rain since
9am
mm
Dir  Spd
km/h
Gust
km/h
Spd
kts
Gust
kts
18/11:30pm 21.6 23.8 16.6 73 3.0 CALM 0 0 0 0 1014.8 1014.6 0.0
18/11:00pm 22.3 24.2 16.8 71 3.4 ESE 2 9 1 5 1014.8 1014.6 0.0
18/10:30pm 22.9 23.8 16.2 66 4.1 ESE 6 9 3 5 1014.7 1014.5 0.0
18/10:00pm 23.6 24.3 16.1 62 4.6 ESE 7 13 4 7 1014.6 1014.4 0.0
18/09:30pm 24.3 24.6 16.0 60 5.1 E 9 17 5 9 1014.6 1014.4 0.0
18/09:00pm 25.0 25.4 16.2 58 5.4 ENE 9 15 5 8 1014.3 1014.1 0.0
18/08:30pm 25.5 26.1 15.8 55 5.9 E 7 15 4 8 1014.0 1013.8 0.0
18/08:00pm 26.5 26.0 15.8 51 6.5 E 13 19 7 10 1013.6 1013.4 0.0
18/07:30pm 27.2 26.8 15.2 47 7.3 E 11 17 6 9 1013.2 1013.0 0.0
18/07:00pm 28.1 27.3 15.1 45 7.9 E 13 28 7 15 1012.7 1012.5 0.0
18/06:30pm 28.9 29.0 15.4 44 8.3 E 9 20 5 11 1012.1 1011.9 0.0
18/06:00pm 29.9 29.5 15.2 41 9.0 E 11 20 6 11 1011.7 1011.5 0.0
18/05:30pm 31.0 30.2 15.0 38 9.8 E 13 22 7 12 1011.3 1011.1 0.0
18/05:00pm 31.8 30.5 14.9 36 10.4 ESE 15 26 8 14 1011.0 1010.8 0.0
18/04:30pm 32.8 32.7 14.9 34 11.1 E 9 20 5 11 1010.6 1010.4 0.0
18/04:00pm 32.6 31.1 14.2 32 11.3 E 15 30 8 16 1010.4 1010.2 0.0
18/03:30pm 32.9 32.3 14.5 33 11.3 ESE 11 17 6 9 1010.4 1010.2 0.0
18/03:00pm 33.3 31.1 13.4 30 12.1 E 17 28 9 15 1010.5 1010.3 0.0
18/02:30pm 33.0 31.8 15.0 33 11.1 E 15 28 8 15 1010.7 1010.5 0.0
18/02:00pm 32.4 30.6 14.5 33 11.0 E 17 26 9 14 1011.2 1011.0 0.0
18/01:30pm 33.0 32.3 15.5 35 10.9 ESE 13 24 7 13 1011.6 1011.4 0.0
18/01:00pm 32.1 31.6 16.8 40 9.7 E 15 28 8 15 1012.1 1011.9 0.0
18/12:30pm 31.4 31.4 16.2 40 9.5 ESE 11 24 6 13 1012.6 1012.4 0.0
18/12:00pm 30.3 30.1 16.7 44 8.6 ESE 13 24 7 13 1013.3 1013.1 0.0
18/11:30am 29.5 29.0 17.0 47 7.9 E 15 26 8 14 1013.7 1013.5 0.0
18/11:00am 29.5 29.5 18.0 50 7.3 ESE 15 26 8 14 1014.3 1014.1 0.0
18/10:30am 28.1 28.0 17.9 54 6.5 ESE 15 24 8 13 1014.8 1014.6 0.0
18/10:00am 26.9 27.2 17.9 57 5.7 ESE 13 24 7 13 1014.9 1014.7 0.0
18/09:30am 26.0 26.8 18.2 62 4.9 ESE 11 20 6 11 1014.9 1014.7 0.0
18/09:00am 24.3 25.6 18.5 70 3.7 ESE 9 13 5 7 1014.8 1014.6 0.0
18/08:30am 22.4 24.1 18.4 78 2.5 SE 7 13 4 7 1014.6 1014.4 0.0
18/08:00am 20.7 22.0 18.5 87 1.4 S 9 13 5 7 1014.4 1014.2 0.0
18/07:30am 19.0 21.0 17.8 93 0.7 SSE 4 9 2 5 1014.2 1014.0 0.0
18/07:00am 17.4 19.4 15.9 91 0.9 CALM 0 0 0 0 1013.8 1013.6 0.0
18/06:30am 17.3 19.2 15.8 91 0.9 CALM 0 0 0 0 1013.4 1013.2 0.0
18/06:00am 17.7 19.8 16.2 91 0.9 CALM 0 0 0 0 1013.0 1012.8 0.0
18/05:30am 17.8 19.8 16.0 89 1.1 CALM 0 0 0 0 1012.6 1012.4 0.0
18/05:00am 18.0 20.0 16.0 88 1.2 CALM 0 0 0 0 1012.4 1012.2 0.0
18/04:30am 18.8 21.2 16.9 89 1.1 CALM 0 0 0 0 1012.1 1011.9 0.0
18/04:00am 19.2 20.5 17.2 88 1.2 SSE 6 7 3 4 1011.8 1011.6 0.0
18/03:30am 19.3 21.6 16.7 85 1.6 CALM 0 6 0 3 1011.9 1011.7 0.0
18/03:00am 19.9 21.3 17.3 85 1.6 SSE 6 7 3 4 1012.0 1011.8 0.0
18/02:30am 20.3 22.4 17.1 82 2.0 SSE 2 7 1 4 1012.3 1012.1 0.0
18/02:00am 21.3 22.8 17.7 80 2.2 ESE 6 11 3 6 1012.4 1012.2 0.0
18/01:30am 21.7 22.7 17.7 78 2.5 E 9 15 5 8 1012.6 1012.4 0.0
18/01:00am 21.9 22.8 17.5 76 2.7 E 9 17 5 9 1012.8 1012.6 0.0
18/12:30am 22.1 22.9 17.2 74 3.0 E 9 17 5 9 1013.1 1012.9 0.0
18/12:00am 22.5 23.3 17.4 73 3.2 E 9 15 5 8 1013.3 1013.1 0.0
 
Date/Time
EST
Temp
°C
App
Temp
°C
Dew
Point
°C
Rel
Hum
%
Delta-T
°C
Wind Press
QNH
hPa
Press
MSL
hPa
Rain since
9am
mm
Dir  Spd
km/h
Gust
km/h
Spd
kts
Gust
kts
17/11:30pm 23.0 23.4 17.2 70 3.6 E 11 20 6 11 1013.4 1013.2 0.0
17/11:00pm 23.1 23.4 17.1 69 3.7 E 11 20 6 11 1013.6 1013.4 0.0
17/10:30pm 23.4 24.0 16.7 66 4.1 ESE 9 15 5 8 1013.5 1013.3 0.0
17/10:00pm 23.8 23.9 16.6 64 4.4 E 11 19 6 10 1013.5 1013.3 0.0
17/09:30pm 24.3 23.9 16.3 61 4.9 E 13 20 7 11 1013.3 1013.1 0.0
17/09:00pm 24.8 25.2 16.2 58 5.3 E 9 19 5 10 1013.2 1013.0 0.0
17/08:30pm 25.5 25.4 16.1 56 5.8 E 11 20 6 11 1012.9 1012.7 0.0
17/08:00pm 26.1 26.0 16.1 54 6.1 E 11 24 6 13 1012.6 1012.4 0.0

Other Formats:

Comma delimited format used in spreadsheet applications
http://www.bom.gov.au/fwo/IDQ60801/IDQ60801.94171.axf

JavaScript Object Notation format (JSON) in row-major order
http://www.bom.gov.au/fwo/IDQ60801/IDQ60801.94171.json